createdAt,value
2019-02-11T00:00:13.294Z,45.07
2019-02-11T00:01:13.290Z,43.87
2019-02-11T00:02:13.277Z,43.95
2019-02-11T00:03:13.276Z,44.17
2019-02-11T00:04:13.256Z,44.35
2019-02-11T00:05:13.246Z,43.95
2019-02-11T00:06:13.237Z,44.45
2019-02-11T00:07:13.224Z,44.15
2019-02-11T00:08:13.226Z,43.74
2019-02-11T00:09:13.201Z,43.64
2019-02-11T00:10:13.188Z,44.04
2019-02-11T00:11:13.188Z,43.54
2019-02-11T00:12:13.169Z,43.62
2019-02-11T00:13:13.178Z,43.72
2019-02-11T00:14:13.148Z,43.72
2019-02-11T00:15:13.139Z,43.52
2019-02-11T00:16:13.130Z,44.02
2019-02-11T00:17:13.121Z,43.52
2019-02-11T00:18:13.130Z,43.32
2019-02-11T00:19:13.105Z,43.32
2019-02-11T00:20:13.087Z,43.02
2019-02-11T00:21:13.077Z,42.41
2019-02-11T00:22:13.076Z,42.92
2019-02-11T00:23:13.056Z,42.32
2019-02-11T00:24:13.924Z,42.32
2019-02-11T00:25:13.036Z,42.60
2019-02-11T00:26:13.032Z,42.40
2019-02-11T00:27:13.016Z,42.30
2019-02-11T00:28:13.003Z,42.61
2019-02-11T00:29:13.024Z,42.60
2019-02-11T00:30:12.983Z,43.10
2019-02-11T00:31:12.981Z,42.30
2019-02-11T00:32:12.963Z,42.11
2019-02-11T00:33:12.948Z,41.82
2019-02-11T00:34:12.944Z,42.49
2019-02-11T00:35:12.948Z,42.32
2019-02-11T00:36:12.928Z,41.99
2019-02-11T00:37:12.909Z,41.79
2019-02-11T00:38:12.896Z,42.19
2019-02-11T00:39:12.886Z,42.60
2019-02-11T00:40:12.923Z,41.99
2019-02-11T00:41:15.381Z,41.99
2019-02-11T00:42:12.856Z,42.40
2019-02-11T00:43:18.974Z,41.99
2019-02-11T00:44:13.832Z,41.57
2019-02-11T00:45:12.823Z,41.89
2019-02-11T00:46:12.826Z,42.27
2019-02-11T00:47:12.797Z,41.89
2019-02-11T00:48:12.788Z,41.29
2019-02-11T00:49:12.782Z,41.67
2019-02-11T00:50:12.776Z,41.49
2019-02-11T00:51:12.786Z,41.17
2019-02-11T00:52:12.757Z,42.49
2019-02-11T00:53:12.741Z,41.79
2019-02-11T00:54:12.729Z,41.39
2019-02-11T00:55:12.715Z,41.89
2019-02-11T00:56:12.703Z,41.19
2019-02-11T00:57:12.711Z,41.47
2019-02-11T00:58:12.684Z,41.47
2019-02-11T00:59:12.673Z,41.47
2019-02-11T01:00:12.661Z,41.57
2019-02-11T01:01:12.665Z,41.87
2019-02-11T01:02:12.668Z,41.67
2019-02-11T01:03:12.632Z,42.10
2019-02-11T01:04:12.626Z,41.59
2019-02-11T01:05:12.609Z,41.79
2019-02-11T01:06:12.602Z,41.67
2019-02-11T01:07:12.590Z,41.87
2019-02-11T01:08:12.592Z,41.89
2019-02-11T01:09:12.566Z,41.79
2019-02-11T01:10:12.557Z,41.67
2019-02-11T01:11:12.545Z,41.69
2019-02-11T01:12:12.545Z,41.57
2019-02-11T01:13:12.536Z,41.87
2019-02-11T01:14:12.524Z,41.87
2019-02-11T01:15:12.506Z,41.27
2019-02-11T01:16:12.493Z,41.67
2019-02-11T01:17:12.546Z,41.57
2019-02-11T01:18:12.480Z,40.97
2019-02-11T01:19:12.457Z,41.37
2019-02-11T01:20:12.453Z,41.07
2019-02-11T01:21:12.438Z,40.87
2019-02-11T01:22:12.428Z,41.57
2019-02-11T01:23:12.426Z,40.97
2019-02-11T01:24:12.408Z,41.57
2019-02-11T01:25:12.397Z,40.87
2019-02-11T01:26:12.390Z,40.97
2019-02-11T01:27:12.378Z,41.57
2019-02-11T01:28:12.384Z,40.75
2019-02-11T01:29:12.355Z,40.93
2019-02-11T01:30:12.353Z,40.03
2019-02-11T01:31:12.330Z,40.11
2019-02-11T01:32:12.324Z,39.40
2019-02-11T01:33:12.334Z,38.89
2019-02-11T01:34:12.310Z,38.67
2019-02-11T01:35:12.290Z,37.65
2019-02-11T01:36:12.285Z,37.35
2019-02-11T01:37:12.276Z,37.85
2019-02-11T01:38:12.278Z,37.83
2019-02-11T01:39:12.259Z,37.73
2019-02-11T01:40:12.241Z,37.31
2019-02-11T01:41:12.235Z,37.53
2019-02-11T01:42:12.218Z,37.61
2019-02-11T01:43:12.229Z,36.71
2019-02-11T01:44:12.200Z,36.61
2019-02-11T01:45:12.189Z,37.19
2019-02-11T01:46:12.180Z,36.40
2019-02-11T01:47:12.170Z,35.80
2019-02-11T01:48:12.185Z,35.88
2019-02-11T01:49:12.149Z,36.08
2019-02-11T01:50:12.137Z,35.88
2019-02-11T01:51:12.124Z,36.08
2019-02-11T01:52:12.117Z,35.88
2019-02-11T01:53:12.104Z,35.78
2019-02-11T01:54:12.107Z,35.88
2019-02-11T01:55:12.084Z,35.98
2019-02-11T01:56:12.074Z,36.19
2019-02-11T01:57:12.066Z,35.58
2019-02-11T01:58:12.056Z,35.38
2019-02-11T01:59:12.060Z,36.28
2019-02-11T02:00:12.030Z,35.39
2019-02-11T02:01:12.017Z,35.78
2019-02-11T02:02:12.012Z,35.48
2019-02-11T02:03:12.001Z,35.48
2019-02-11T02:04:12.003Z,35.38
2019-02-11T02:05:11.981Z,35.60
2019-02-11T02:06:11.971Z,35.78
2019-02-11T02:07:11.954Z,35.19
2019-02-11T02:08:11.949Z,35.80
2019-02-11T02:09:11.951Z,35.69
2019-02-11T02:10:11.923Z,36.10
2019-02-11T02:11:11.913Z,35.89
2019-02-11T02:12:11.907Z,36.10
2019-02-11T02:13:11.899Z,35.88
2019-02-11T02:14:11.897Z,36.28
2019-02-11T02:15:11.873Z,35.69
2019-02-11T02:16:11.862Z,35.39
2019-02-11T02:17:11.855Z,35.30
2019-02-11T02:18:11.841Z,36.19
2019-02-11T02:19:11.843Z,34.99
2019-02-11T02:20:11.822Z,36.40
2019-02-11T02:21:11.809Z,35.91
2019-02-11T02:22:11.799Z,35.21
2019-02-11T02:23:11.793Z,36.01
2019-02-11T02:24:11.786Z,36.11
2019-02-11T02:25:11.767Z,36.11
2019-02-11T02:26:11.760Z,36.11
2019-02-11T02:27:11.749Z,36.83
2019-02-11T02:28:11.741Z,36.33
2019-02-11T02:29:11.746Z,36.33
2019-02-11T02:30:11.723Z,36.73
2019-02-11T02:31:11.712Z,36.43
2019-02-11T02:32:11.695Z,36.63
2019-02-11T02:33:11.688Z,36.55
2019-02-11T02:34:11.701Z,36.75
2019-02-11T02:35:11.665Z,37.85
2019-02-11T02:36:11.663Z,36.44
2019-02-11T02:37:11.647Z,36.94
2019-02-11T02:38:11.630Z,37.35
2019-02-11T02:39:11.623Z,37.45
2019-02-11T02:40:11.625Z,37.25
2019-02-11T02:41:11.606Z,37.25
2019-02-11T02:42:11.592Z,37.25
2019-02-11T02:43:11.583Z,37.05
2019-02-11T02:44:11.568Z,36.94
2019-02-11T02:45:11.583Z,37.65
2019-02-11T02:46:11.547Z,36.85
2019-02-11T02:47:11.536Z,37.75
2019-02-11T02:48:11.540Z,37.25
2019-02-11T02:49:11.524Z,36.85
2019-02-11T02:50:11.539Z,37.37
2019-02-11T02:51:11.505Z,38.07
2019-02-11T02:52:11.485Z,38.07
2019-02-11T02:53:11.475Z,37.37
2019-02-11T02:54:11.468Z,36.76
2019-02-11T02:55:11.469Z,38.09
2019-02-11T02:56:11.442Z,37.59
2019-02-11T02:57:11.434Z,37.88
2019-02-11T02:58:11.422Z,37.48
2019-02-11T02:59:11.412Z,37.88
2019-02-11T03:00:11.418Z,38.00
2019-02-11T03:01:11.393Z,38.31
2019-02-11T03:02:11.382Z,37.80
2019-02-11T03:03:11.385Z,37.50
2019-02-11T03:04:11.365Z,38.31
2019-02-11T03:05:11.372Z,38.22
2019-02-11T03:06:11.341Z,38.70
2019-02-11T03:07:11.329Z,37.90
2019-02-11T03:08:11.317Z,38.31
2019-02-11T03:09:11.308Z,37.80
2019-02-11T03:10:11.313Z,39.01
2019-02-11T03:11:11.287Z,39.01
2019-02-11T03:12:11.276Z,38.00
2019-02-11T03:13:11.298Z,38.53
2019-02-11T03:14:11.266Z,37.30
2019-02-11T03:15:11.266Z,37.52
2019-02-11T03:16:11.234Z,38.12
2019-02-11T03:17:11.226Z,38.32
2019-02-11T03:18:11.215Z,37.82
2019-02-11T03:19:11.201Z,38.62
2019-02-11T03:20:11.217Z,37.72
2019-02-11T03:21:11.181Z,38.62
2019-02-11T03:22:11.173Z,38.92
2019-02-11T03:23:11.161Z,38.62
2019-02-11T03:24:11.152Z,38.34
2019-02-11T03:25:11.138Z,38.12
2019-02-11T03:26:11.153Z,38.72
2019-02-11T03:27:11.134Z,38.53
2019-02-11T03:28:11.105Z,38.72
2019-02-11T03:29:11.104Z,38.42
2019-02-11T03:30:11.093Z,38.92
2019-02-11T03:31:11.087Z,37.72
2019-02-11T03:32:11.068Z,37.82
2019-02-11T03:33:11.069Z,37.82
2019-02-11T03:34:11.042Z,38.82
2019-02-11T03:35:11.033Z,39.14
2019-02-11T03:36:11.051Z,38.74
2019-02-11T03:37:11.011Z,39.14
2019-02-11T03:38:11.003Z,38.84
2019-02-11T03:39:10.995Z,38.24
2019-02-11T03:40:10.981Z,38.14
2019-02-11T03:41:10.987Z,39.04
2019-02-11T03:42:10.962Z,38.24
2019-02-11T03:43:10.954Z,38.74
2019-02-11T03:44:15.096Z,38.54
2019-02-11T03:45:10.933Z,38.64
2019-02-11T03:46:10.933Z,39.04
2019-02-11T03:47:10.912Z,38.74
2019-02-11T03:48:10.901Z,38.84
2019-02-11T03:49:10.890Z,38.34
2019-02-11T03:50:10.877Z,38.74
2019-02-11T03:51:10.885Z,38.84
2019-02-11T03:52:10.857Z,38.54
2019-02-11T03:53:10.849Z,38.84
2019-02-11T03:54:10.841Z,38.54
2019-02-11T03:55:10.833Z,38.74
2019-02-11T03:56:10.845Z,38.53
2019-02-11T03:57:10.810Z,39.14
2019-02-11T03:58:10.797Z,38.92
2019-02-11T03:59:10.784Z,38.74
2019-02-11T04:00:10.775Z,38.53
2019-02-11T04:01:10.770Z,39.04
2019-02-11T04:02:10.772Z,38.84
2019-02-11T04:03:10.742Z,39.04
2019-02-11T04:04:10.745Z,38.64
2019-02-11T04:05:10.727Z,38.94
2019-02-11T04:06:10.712Z,38.84
2019-02-11T04:07:10.712Z,38.74
2019-02-11T04:08:10.702Z,38.54
2019-02-11T04:09:10.691Z,38.54
2019-02-11T04:10:10.676Z,38.94
2019-02-11T04:11:10.663Z,38.34
2019-02-11T04:12:10.661Z,38.84
2019-02-11T04:13:10.642Z,39.14
2019-02-11T04:14:10.635Z,37.94
2019-02-11T04:15:10.616Z,38.94
2019-02-11T04:16:10.611Z,38.94
2019-02-11T04:17:10.611Z,38.84
2019-02-11T04:18:10.585Z,38.44
2019-02-11T04:19:10.571Z,38.64
2019-02-11T04:20:10.585Z,38.96
2019-02-11T04:21:10.553Z,38.96
2019-02-11T04:22:10.563Z,38.46
2019-02-11T04:23:10.528Z,38.96
2019-02-11T04:24:10.526Z,39.76
2019-02-11T04:25:10.519Z,39.36
2019-02-11T04:26:10.502Z,39.16
2019-02-11T04:27:10.499Z,39.47
2019-02-11T04:28:10.485Z,40.17
2019-02-11T04:29:10.469Z,39.26
2019-02-11T04:30:10.460Z,39.48
2019-02-11T04:31:10.448Z,39.98
2019-02-11T04:32:10.453Z,40.39
2019-02-11T04:33:10.425Z,39.38
2019-02-11T04:34:10.418Z,39.88
2019-02-11T04:35:10.406Z,40.08
2019-02-11T04:36:10.396Z,39.88
2019-02-11T04:37:10.419Z,39.88
2019-02-11T04:38:10.384Z,40.08
2019-02-11T04:39:10.367Z,39.76
2019-02-11T04:40:10.357Z,39.48
2019-02-11T04:41:10.346Z,39.47
2019-02-11T04:42:10.339Z,40.26
2019-02-11T04:43:10.341Z,39.56
2019-02-11T04:44:10.320Z,39.78
2019-02-11T04:45:10.304Z,40.19
2019-02-11T04:46:10.302Z,39.48
2019-02-11T04:47:10.283Z,39.58
2019-02-11T04:48:10.289Z,39.48
2019-02-11T04:49:10.262Z,40.26
2019-02-11T04:50:10.264Z,40.06
2019-02-11T04:51:10.243Z,39.86
2019-02-11T04:52:10.228Z,39.16
2019-02-11T04:53:10.237Z,39.45
2019-02-11T04:54:10.214Z,39.54
2019-02-11T04:55:10.199Z,38.34
2019-02-11T04:56:10.192Z,38.62
2019-02-11T04:57:10.185Z,38.92
2019-02-11T04:58:10.180Z,38.92
2019-02-11T04:59:10.154Z,38.64
2019-02-11T05:00:10.158Z,38.64
2019-02-11T05:01:10.139Z,38.64
2019-02-11T05:02:10.128Z,38.64
2019-02-11T05:03:10.145Z,38.94
2019-02-11T05:04:10.105Z,39.04
2019-02-11T05:05:10.099Z,38.64
2019-02-11T05:06:10.089Z,39.54
2019-02-11T05:07:10.078Z,39.45
2019-02-11T05:08:10.089Z,40.35
2019-02-11T05:09:10.054Z,40.05
2019-02-11T05:10:10.047Z,39.97
2019-02-11T05:11:10.039Z,40.06
2019-02-11T05:12:10.025Z,39.86
2019-02-11T05:13:10.028Z,39.97
2019-02-11T05:14:10.006Z,39.97
2019-02-11T05:15:09.986Z,40.28
2019-02-11T05:16:09.978Z,39.98
2019-02-11T05:17:09.968Z,39.98
2019-02-11T05:18:09.988Z,40.69
2019-02-11T05:19:09.956Z,40.59
2019-02-11T05:20:09.946Z,40.08
2019-02-11T05:21:09.928Z,41.29
2019-02-11T05:22:09.921Z,39.88
2019-02-11T05:23:09.914Z,40.69
2019-02-11T05:24:09.921Z,39.88
2019-02-11T05:25:09.896Z,40.48
2019-02-11T05:26:09.877Z,40.19
2019-02-11T05:27:09.871Z,39.78
2019-02-11T05:28:09.857Z,39.88
2019-02-11T05:29:09.864Z,39.98
2019-02-11T05:30:09.840Z,39.88
2019-02-11T05:31:09.826Z,40.17
2019-02-11T05:32:09.817Z,40.17
2019-02-11T05:33:09.834Z,39.64
2019-02-11T05:34:09.803Z,39.84
2019-02-11T05:35:09.790Z,38.92
2019-02-11T05:36:09.774Z,39.42
2019-02-11T05:37:09.760Z,39.53
2019-02-11T05:38:09.751Z,39.73
2019-02-11T05:39:09.755Z,39.03
2019-02-11T05:40:09.732Z,38.51
2019-02-11T05:41:09.720Z,38.62
2019-02-11T05:42:09.711Z,38.31
2019-02-11T05:43:09.696Z,38.60
2019-02-11T05:44:09.703Z,38.40
2019-02-11T05:45:09.679Z,39.01
2019-02-11T05:46:09.669Z,38.81
2019-02-11T05:47:09.656Z,39.11
2019-02-11T05:48:09.653Z,38.60
2019-02-11T05:49:09.650Z,38.10
2019-02-11T05:50:09.630Z,38.39
2019-02-11T05:51:09.613Z,39.11
2019-02-11T05:52:09.639Z,38.81
2019-02-11T05:53:09.596Z,38.90
2019-02-11T05:54:09.603Z,38.60
2019-02-11T05:55:09.570Z,38.40
2019-02-11T05:56:09.559Z,39.73
2019-02-11T05:57:09.551Z,40.13
2019-02-11T05:58:09.538Z,40.73
2019-02-11T05:59:09.550Z,41.43
2019-02-11T06:00:09.517Z,41.65
2019-02-11T06:01:09.507Z,41.65
2019-02-11T06:02:09.499Z,42.96
2019-02-11T06:03:09.729Z,42.55
2019-02-11T06:04:09.492Z,43.46
2019-02-11T06:05:09.468Z,43.78
2019-02-11T06:06:09.461Z,44.89
2019-02-11T06:07:09.455Z,44.79
2019-02-11T06:08:09.437Z,44.18
2019-02-11T06:09:09.460Z,45.97
2019-02-11T06:10:09.411Z,45.79
2019-02-11T06:11:09.482Z,45.89
2019-02-11T06:12:09.491Z,45.89
2019-02-11T06:13:09.385Z,46.69
2019-02-11T06:14:09.374Z,47.19
2019-02-11T06:15:09.373Z,46.09
2019-02-11T06:16:09.364Z,46.09
2019-02-11T06:17:09.341Z,45.89
2019-02-11T06:18:09.337Z,46.81
2019-02-11T06:19:09.322Z,46.61
2019-02-11T06:20:09.326Z,46.81
2019-02-11T06:21:09.300Z,47.02
2019-02-11T06:22:09.287Z,47.42
2019-02-11T06:23:09.277Z,47.32
2019-02-11T06:24:09.273Z,47.72
2019-02-11T06:25:09.273Z,47.42
2019-02-11T06:26:09.249Z,47.62
2019-02-11T06:27:09.240Z,47.52
2019-02-11T06:28:09.228Z,48.55
2019-02-11T06:29:09.220Z,47.94
2019-02-11T06:30:09.222Z,47.74
2019-02-11T06:31:09.198Z,47.64
2019-02-11T06:32:09.186Z,47.12
2019-02-11T06:33:09.173Z,47.22
2019-02-11T06:34:09.168Z,47.02
2019-02-11T06:35:09.166Z,47.32
2019-02-11T06:36:12.220Z,47.12
2019-02-11T06:37:09.138Z,47.30
2019-02-11T06:38:09.123Z,45.69
2019-02-11T06:39:09.128Z,47.09
2019-02-11T06:40:09.122Z,46.80
2019-02-11T06:41:09.352Z,47.19
2019-02-11T06:42:09.083Z,47.00
2019-02-11T06:43:09.074Z,46.29
2019-02-11T06:44:09.059Z,46.19
2019-02-11T06:45:13.098Z,46.87
2019-02-11T06:46:09.039Z,45.87
2019-02-11T06:47:09.042Z,45.06
2019-02-11T06:48:09.019Z,46.07
2019-02-11T06:49:09.006Z,45.37
2019-02-11T06:50:09.029Z,45.37
2019-02-11T06:51:08.986Z,45.37
2019-02-11T06:52:08.976Z,45.65
2019-02-11T06:53:08.961Z,45.75
2019-02-11T06:54:09.475Z,44.64
2019-02-11T06:55:08.962Z,44.54
2019-02-11T06:56:08.990Z,45.65
2019-02-11T06:57:09.475Z,44.14
2019-02-11T06:58:09.474Z,44.54
2019-02-11T06:59:08.901Z,45.45
2019-02-11T07:00:08.897Z,44.54
2019-02-11T07:01:08.899Z,45.25
2019-02-11T07:02:08.870Z,44.54
2019-02-11T07:03:08.860Z,44.95
2019-02-11T07:04:08.854Z,44.84
2019-02-11T07:05:08.837Z,44.54
2019-02-11T07:06:08.848Z,45.04
2019-02-11T07:07:08.828Z,44.44
2019-02-11T07:08:08.811Z,44.64
2019-02-11T07:09:08.795Z,44.74
2019-02-11T07:10:08.787Z,43.64
2019-02-11T07:11:08.794Z,44.95
2019-02-11T07:12:08.767Z,44.14
2019-02-11T07:13:08.758Z,43.74
2019-02-11T07:14:08.743Z,44.54
2019-02-11T07:15:08.736Z,44.44
2019-02-11T07:16:08.735Z,43.96
2019-02-11T07:17:08.711Z,44.74
2019-02-11T07:18:08.701Z,44.67
2019-02-11T07:19:08.689Z,44.26
2019-02-11T07:20:08.684Z,44.26
2019-02-11T07:21:08.688Z,44.36
2019-02-11T07:22:08.657Z,44.76
2019-02-11T07:23:08.652Z,44.44
2019-02-11T07:24:08.647Z,44.74
2019-02-11T07:25:08.627Z,44.26
2019-02-11T07:26:08.642Z,45.06
2019-02-11T07:27:08.612Z,45.67
2019-02-11T07:28:08.598Z,45.26
2019-02-11T07:29:08.588Z,44.95
2019-02-11T07:30:08.581Z,45.57
2019-02-11T07:31:08.587Z,44.84
2019-02-11T07:32:08.557Z,44.84
2019-02-11T07:33:08.553Z,44.67
2019-02-11T07:34:08.536Z,44.46
2019-02-11T07:35:08.528Z,44.36
2019-02-11T07:36:08.540Z,45.77
2019-02-11T07:37:08.505Z,44.26
2019-02-11T07:38:08.493Z,44.96
2019-02-11T07:39:08.485Z,45.47
2019-02-11T07:40:08.473Z,45.17
2019-02-11T07:41:08.461Z,45.04
2019-02-11T07:42:08.474Z,44.64
2019-02-11T07:43:08.446Z,44.64
2019-02-11T07:44:08.431Z,44.84
2019-02-11T07:45:08.420Z,44.04
2019-02-11T07:46:08.409Z,44.02
2019-02-11T07:47:08.421Z,44.04
2019-02-11T07:48:08.389Z,44.22
2019-02-11T07:49:08.377Z,44.22
2019-02-11T07:50:08.382Z,44.42
2019-02-11T07:51:08.361Z,44.22
2019-02-11T07:52:08.365Z,44.24
2019-02-11T07:53:08.433Z,43.92
2019-02-11T07:54:08.331Z,44.34
2019-02-11T07:55:08.319Z,44.34
2019-02-11T07:56:08.305Z,44.54
2019-02-11T07:57:08.321Z,44.54
2019-02-11T07:58:08.286Z,43.84
2019-02-11T07:59:08.280Z,43.94
2019-02-11T08:00:08.267Z,43.94
2019-02-11T08:01:08.254Z,43.32
2019-02-11T08:02:08.264Z,43.84
2019-02-11T08:03:08.243Z,44.24
2019-02-11T08:04:08.224Z,44.34
2019-02-11T08:05:08.211Z,43.74
2019-02-11T08:06:09.112Z,44.34
2019-02-11T08:07:08.213Z,44.06
2019-02-11T08:08:08.184Z,43.84
2019-02-11T08:09:08.180Z,43.94
2019-02-11T08:10:08.161Z,44.56
2019-02-11T08:11:08.155Z,43.86
2019-02-11T08:12:08.157Z,43.66
2019-02-11T08:13:08.136Z,44.26
2019-02-11T08:14:08.121Z,44.26
2019-02-11T08:15:08.116Z,44.28
2019-02-11T08:16:08.103Z,44.99
2019-02-11T08:17:08.120Z,44.87
2019-02-11T08:18:08.078Z,44.89
2019-02-11T08:19:08.080Z,44.89
2019-02-11T08:20:08.060Z,44.79
2019-02-11T08:21:08.046Z,44.89
2019-02-11T08:22:08.033Z,44.59
2019-02-11T08:23:13.047Z,44.68
2019-02-11T08:24:09.015Z,45.79
2019-02-11T08:25:08.008Z,44.28
2019-02-11T08:26:07.995Z,44.48
2019-02-11T08:27:07.988Z,44.18
2019-02-11T08:28:07.993Z,44.99
2019-02-11T08:29:07.974Z,44.79
2019-02-11T08:30:07.958Z,44.79
2019-02-11T08:31:07.945Z,45.49
2019-02-11T08:32:07.938Z,44.38
2019-02-11T08:33:07.940Z,44.18
2019-02-11T08:34:07.920Z,44.28
2019-02-11T08:35:07.899Z,45.09
2019-02-11T08:36:07.888Z,45.89
2019-02-11T08:37:07.883Z,44.59
2019-02-11T08:38:07.896Z,44.89
2019-02-11T08:39:07.876Z,44.68
2019-02-11T08:40:07.854Z,44.89
2019-02-11T08:41:07.846Z,44.18
2019-02-11T08:42:07.831Z,44.59
2019-02-11T08:43:07.834Z,44.89
2019-02-11T08:44:07.811Z,44.59
2019-02-11T08:45:07.803Z,44.59
2019-02-11T08:46:07.790Z,44.38
2019-02-11T08:47:07.780Z,44.38
2019-02-11T08:48:07.779Z,44.89
2019-02-11T08:49:07.757Z,44.99
2019-02-11T08:50:15.537Z,44.28
2019-02-11T08:51:07.735Z,44.89
2019-02-11T08:52:07.726Z,44.99
2019-02-11T08:53:07.735Z,44.28
2019-02-11T08:54:07.708Z,44.38
2019-02-11T08:55:07.721Z,44.89
2019-02-11T08:56:07.686Z,44.79
2019-02-11T08:57:07.701Z,43.68
2019-02-11T08:58:07.680Z,42.27
2019-02-11T08:59:07.653Z,43.28
2019-02-11T09:00:07.646Z,44.28
2019-02-11T09:01:07.631Z,43.48
2019-02-11T09:02:07.622Z,43.18
2019-02-11T09:03:07.624Z,43.48
2019-02-11T09:04:07.603Z,43.88
2019-02-11T09:05:07.590Z,43.48
2019-02-11T09:06:07.577Z,43.48
2019-02-11T09:07:07.568Z,43.08
2019-02-11T09:08:07.574Z,44.08
2019-02-11T09:09:07.553Z,43.78
2019-02-11T09:10:07.546Z,44.28
2019-02-11T09:11:07.537Z,44.08
2019-02-11T09:12:07.515Z,45.77
2019-02-11T09:13:07.530Z,44.89
2019-02-11T09:14:07.495Z,45.79
2019-02-11T09:15:07.497Z,45.26
2019-02-11T09:16:07.478Z,45.17
2019-02-11T09:17:10.406Z,45.26
2019-02-11T09:18:07.457Z,45.67
2019-02-11T09:19:07.456Z,45.84
2019-02-11T09:20:07.435Z,45.25
2019-02-11T09:21:07.425Z,46.25
2019-02-11T09:22:07.903Z,46.95
2019-02-11T09:23:07.402Z,46.37
2019-02-11T09:24:07.412Z,45.97
2019-02-11T09:25:07.388Z,47.17
2019-02-11T09:26:07.371Z,47.25
2019-02-11T09:27:07.358Z,46.85
2019-02-11T09:28:07.346Z,47.45
2019-02-11T09:29:07.355Z,47.96
2019-02-11T09:30:07.330Z,47.25
2019-02-11T09:31:07.321Z,47.45
2019-02-11T09:32:07.312Z,47.75
2019-02-11T09:33:07.306Z,47.96
2019-02-11T09:34:07.310Z,47.05
2019-02-11T09:35:07.319Z,47.85
2019-02-11T09:36:07.265Z,47.55
2019-02-11T09:37:07.258Z,46.55
2019-02-11T09:38:07.248Z,47.25
2019-02-11T09:39:07.251Z,47.25
2019-02-11T09:40:07.228Z,47.35
2019-02-11T09:41:07.219Z,47.03
2019-02-11T09:42:07.209Z,45.54
2019-02-11T09:43:07.219Z,45.84
2019-02-11T09:44:07.190Z,46.75
2019-02-11T09:45:07.173Z,46.73
2019-02-11T09:46:07.160Z,47.13
2019-02-11T09:47:07.157Z,48.83
2019-02-11T09:48:07.141Z,47.33
2019-02-11T09:49:07.148Z,47.63
2019-02-11T09:50:07.121Z,47.23
2019-02-11T09:51:07.111Z,47.33
2019-02-11T09:52:07.099Z,49.04
2019-02-11T09:53:07.090Z,49.43
2019-02-11T09:54:07.094Z,49.74
2019-02-11T09:55:07.073Z,51.04
2019-02-11T09:56:07.069Z,52.42
2019-02-11T09:57:07.052Z,52.44
2019-02-11T09:58:07.041Z,51.64
2019-02-11T09:59:07.046Z,51.24
2019-02-11T10:00:07.041Z,51.62
2019-02-11T10:01:07.009Z,52.64
2019-02-11T10:02:06.999Z,53.64
2019-02-11T10:03:06.987Z,52.64
2019-02-11T10:04:06.998Z,53.75
2019-02-11T10:05:06.965Z,52.44
2019-02-11T10:06:06.952Z,54.05
2019-02-11T10:07:06.942Z,53.95
2019-02-11T10:08:06.933Z,53.55
2019-02-11T10:09:06.929Z,53.34
2019-02-11T10:10:06.929Z,52.84
2019-02-11T10:11:06.902Z,52.97
2019-02-11T10:12:06.888Z,53.14
2019-02-11T10:13:06.880Z,52.87
2019-02-11T10:14:06.871Z,52.57
2019-02-11T10:15:06.876Z,51.67
2019-02-11T10:16:12.258Z,51.46
2019-02-11T10:17:07.837Z,52.07
2019-02-11T10:18:06.842Z,50.86
2019-02-11T10:19:06.819Z,51.46
2019-02-11T10:20:06.823Z,50.79
2019-02-11T10:21:06.797Z,51.49
2019-02-11T10:22:06.786Z,50.56
2019-02-11T10:23:06.775Z,51.09
2019-02-11T10:24:06.764Z,51.17
2019-02-11T10:25:06.778Z,50.96
2019-02-11T10:26:06.744Z,50.46
2019-02-11T10:27:06.732Z,50.46
2019-02-11T10:28:06.723Z,51.76
2019-02-11T10:29:06.715Z,50.89
2019-02-11T10:30:06.729Z,51.59
2019-02-11T10:31:06.696Z,50.79
2019-02-11T10:32:06.683Z,51.09
2019-02-11T10:33:06.676Z,50.99
2019-02-11T10:34:06.665Z,51.19
2019-02-11T10:35:06.676Z,51.56
2019-02-11T10:36:06.640Z,51.06
2019-02-11T10:37:06.647Z,50.86
2019-02-11T10:38:06.619Z,50.96
2019-02-11T10:39:06.613Z,50.99
2019-02-11T10:40:06.607Z,51.37
2019-02-11T10:41:06.603Z,51.37
2019-02-11T10:42:06.579Z,51.56
2019-02-11T10:43:06.572Z,50.76
2019-02-11T10:44:06.558Z,50.44
2019-02-11T10:45:06.564Z,50.54
2019-02-11T10:46:06.556Z,49.74
2019-02-11T10:47:06.531Z,49.93
2019-02-11T10:48:06.518Z,49.33
2019-02-11T10:49:06.520Z,49.31
2019-02-11T10:50:06.509Z,48.83
2019-02-11T10:51:06.507Z,49.13
2019-02-11T10:52:06.504Z,48.91
2019-02-11T10:53:06.465Z,48.81
2019-02-11T10:54:06.458Z,48.61
2019-02-11T10:55:06.460Z,48.11
2019-02-11T10:56:06.450Z,48.11
2019-02-11T10:57:06.426Z,47.61
2019-02-11T10:58:06.468Z,47.91
2019-02-11T10:59:06.409Z,47.31
2019-02-11T11:00:06.395Z,46.70
2019-02-11T11:01:06.415Z,46.81
2019-02-11T11:02:06.383Z,45.88
2019-02-11T11:03:06.364Z,45.78
2019-02-11T11:04:06.356Z,45.68
2019-02-11T11:05:06.352Z,45.58
2019-02-11T11:06:06.348Z,44.48
2019-02-11T11:07:06.330Z,44.48
2019-02-11T11:08:06.316Z,44.78
2019-02-11T11:09:06.309Z,44.98
2019-02-11T11:10:06.290Z,43.88
2019-02-11T11:11:06.304Z,42.88
2019-02-11T11:12:06.273Z,42.38
2019-02-11T11:13:06.292Z,42.47
2019-02-11T11:14:06.252Z,42.97
2019-02-11T11:15:06.236Z,42.97
2019-02-11T11:16:06.246Z,41.88
2019-02-11T11:17:06.218Z,41.67
2019-02-11T11:18:06.268Z,42.68
2019-02-11T11:19:06.193Z,42.10
2019-02-11T11:20:06.183Z,42.69
2019-02-11T11:21:06.204Z,41.79
2019-02-11T11:22:06.163Z,41.89
2019-02-11T11:23:06.180Z,41.89
2019-02-11T11:24:06.142Z,43.10
2019-02-11T11:25:06.136Z,41.99
2019-02-11T11:26:06.153Z,41.89
2019-02-11T11:27:06.114Z,42.30
2019-02-11T11:28:06.108Z,41.39
2019-02-11T11:29:06.191Z,42.30
2019-02-11T11:30:06.075Z,41.69
2019-02-11T11:31:06.071Z,41.79
2019-02-11T11:32:06.075Z,41.69
2019-02-11T11:33:06.048Z,41.19
2019-02-11T11:34:06.036Z,41.60
2019-02-11T11:35:06.023Z,41.60
2019-02-11T11:36:06.017Z,42.19
2019-02-11T11:37:06.024Z,41.99
2019-02-11T11:38:05.998Z,42.30
2019-02-11T11:39:05.985Z,41.39
2019-02-11T11:40:05.971Z,41.49
2019-02-11T11:41:05.969Z,41.79
2019-02-11T11:42:05.965Z,41.89
2019-02-11T11:43:05.944Z,41.99
2019-02-11T11:44:05.932Z,41.39
2019-02-11T11:45:05.932Z,41.19
2019-02-11T11:46:05.919Z,41.39
2019-02-11T11:47:05.920Z,40.99
2019-02-11T11:48:05.901Z,41.29
2019-02-11T11:49:05.886Z,41.69
2019-02-11T11:50:05.868Z,41.71
2019-02-11T11:51:05.861Z,41.82
2019-02-11T11:52:05.861Z,41.69
2019-02-11T11:53:05.839Z,41.60
2019-02-11T11:54:05.827Z,41.31
2019-02-11T11:55:05.818Z,41.49
2019-02-11T11:56:05.813Z,41.21
2019-02-11T11:57:05.823Z,41.61
2019-02-11T11:58:05.870Z,41.71
2019-02-11T11:59:05.820Z,42.03
2019-02-11T12:00:05.778Z,41.91
2019-02-11T12:01:05.753Z,41.71
2019-02-11T12:02:05.781Z,41.51
2019-02-11T12:03:06.147Z,42.02
2019-02-11T12:04:06.784Z,41.13
2019-02-11T12:05:05.723Z,42.44
2019-02-11T12:06:05.704Z,42.13
2019-02-11T12:07:05.721Z,42.13
2019-02-11T12:08:05.686Z,42.13
2019-02-11T12:09:05.680Z,42.13
2019-02-11T12:10:05.658Z,41.93
2019-02-11T12:11:05.659Z,42.83
2019-02-11T12:12:05.657Z,42.13
2019-02-11T12:13:21.829Z,42.44
2019-02-11T12:14:06.627Z,41.83
2019-02-11T12:15:05.646Z,42.13
2019-02-11T12:16:05.593Z,42.25
2019-02-11T12:17:05.594Z,42.46
2019-02-11T12:18:05.614Z,41.93
2019-02-11T12:19:05.571Z,42.44
2019-02-11T12:20:05.565Z,42.33
2019-02-11T12:21:05.554Z,41.55
2019-02-11T12:22:05.543Z,41.74
2019-02-11T12:23:05.602Z,41.96
2019-02-11T12:24:05.518Z,43.24
2019-02-11T12:25:05.505Z,43.84
2019-02-11T12:26:05.494Z,43.94
2019-02-11T12:27:05.485Z,44.24
2019-02-11T12:28:05.485Z,44.54
2019-02-11T12:29:05.456Z,44.24
2019-02-11T12:30:05.452Z,44.64
2019-02-11T12:31:05.441Z,45.75
2019-02-11T12:32:05.429Z,44.64
2019-02-11T12:33:05.437Z,44.54
2019-02-11T12:34:05.426Z,44.84
2019-02-11T12:35:05.400Z,44.54
2019-02-11T12:36:05.418Z,44.95
2019-02-11T12:37:09.108Z,45.53
2019-02-11T12:38:05.413Z,45.62
2019-02-11T12:39:05.358Z,44.92
2019-02-11T12:40:05.355Z,46.23
2019-02-11T12:41:05.341Z,45.92
2019-02-11T12:42:05.329Z,46.73
2019-02-11T12:43:05.346Z,46.53
2019-02-11T12:44:05.300Z,46.03
2019-02-11T12:45:05.305Z,46.53
2019-02-11T12:46:05.291Z,45.42
2019-02-11T12:47:14.080Z,46.12
2019-02-11T12:48:06.285Z,47.03
2019-02-11T12:49:05.297Z,46.20
2019-02-11T12:50:05.244Z,45.92
2019-02-11T12:51:05.240Z,47.13
2019-02-11T12:52:05.225Z,47.31